Time;durP1;ratioP1;P1;durP2;ratioP2;P2;SDS_P1;SDS_P2;PMS_P1;PMS_P2;Temp;Humidity;BMP_temperature;BMP_pressure;BME280_temperature;BME280_humidity;BME280_pressure;Samples;Min_cycle;Max_cycle;Signal;HPM_P1;HPM_P2
2022/01/17 00:02:08;;;;;;;133.52;40.40;;;;;;;4.70;100.00;103212.84;5283627;28;20033;-73
2022/01/17 00:04:38;;;;;;;139.93;43.13;;;;;;;4.68;100.00;103212.94;5275951;28;20020;-73
2022/01/17 00:07:09;;;;;;;135.35;40.83;;;;;;;4.67;100.00;103213.88;5266255;28;20063;-73
2022/01/17 00:09:39;;;;;;;149.48;42.13;;;;;;;4.69;100.00;103217.31;5284433;28;20353;-74
2022/01/17 00:12:10;;;;;;;141.38;42.75;;;;;;;4.67;100.00;103206.75;5267089;28;20032;-74
2022/01/17 00:14:42;;;;;;;137.68;39.55;;;;;;;4.67;100.00;103200.56;5273559;28;20030;-73
2022/01/17 00:19:46;;;;;;;134.95;41.35;;;;;;;4.74;100.00;103214.44;5263117;28;20912;-73
2022/01/17 00:22:19;;;;;;;139.68;40.08;;;;;;;4.76;100.00;103209.91;5283138;28;20027;-73
2022/01/17 00:24:50;;;;;;;146.85;41.25;;;;;;;4.75;100.00;103221.47;5278208;28;20074;-73
2022/01/17 00:27:21;;;;;;;138.00;42.10;;;;;;;4.76;100.00;103223.19;5275960;28;20023;-73
2022/01/17 00:29:51;;;;;;;135.40;41.72;;;;;;;4.74;100.00;103225.94;5262975;28;20054;-73
2022/01/17 00:32:22;;;;;;;146.10;41.38;;;;;;;4.78;100.00;103243.47;5271931;28;20429;-73
2022/01/17 00:34:52;;;;;;;139.85;42.08;;;;;;;4.79;100.00;103242.53;5279901;28;20389;-73
2022/01/17 00:37:23;;;;;;;138.45;40.05;;;;;;;4.80;100.00;103246.91;5274846;28;20023;-73
2022/01/17 00:39:54;;;;;;;144.90;41.85;;;;;;;4.78;100.00;103243.47;5284041;28;20073;-73
2022/01/17 00:42:24;;;;;;;144.98;43.40;;;;;;;4.78;100.00;103256.78;5284082;28;20042;-73
2022/01/17 00:44:55;;;;;;;131.50;40.28;;;;;;;4.77;100.00;103264.81;5263076;28;20036;-73
2022/01/17 00:47:25;;;;;;;138.98;39.70;;;;;;;4.79;100.00;103261.16;5262923;28;20107;-74
2022/01/17 00:49:55;;;;;;;125.00;42.55;;;;;;;4.79;100.00;103263.81;5261764;28;20473;-74
2022/01/17 00:52:26;;;;;;;122.15;39.85;;;;;;;4.79;100.00;103262.97;5262981;28;20499;-74
2022/01/17 00:54:56;;;;;;;143.45;42.95;;;;;;;4.79;100.00;103261.16;5263516;28;20385;-73
2022/01/17 00:57:27;;;;;;;148.52;42.50;;;;;;;4.74;100.00;103262.31;5262473;28;20055;-73
2022/01/17 00:59:57;;;;;;;150.65;44.55;;;;;;;4.72;100.00;103256.16;5262883;28;20020;-74
2022/01/17 01:02:28;;;;;;;140.13;42.28;;;;;;;4.72;100.00;103257.06;5263576;28;20035;-73
2022/01/17 01:04:58;;;;;;;141.20;45.33;;;;;;;4.72;100.00;103256.16;5262614;28;20032;-73
2022/01/17 01:07:29;;;;;;;147.43;43.35;;;;;;;4.71;100.00;103247.34;5268102;28;20040;-73
2022/01/17 01:12:48;;;;;;;151.68;43.60;;;;;;;4.72;100.00;103253.50;5274735;28;20060;-74
2022/01/17 01:15:34;;;;;;;141.75;42.05;;;;;;;4.72;100.00;103265.03;5265690;28;20016;-74
2022/01/17 01:18:15;;;;;;;156.50;42.35;;;;;;;4.73;100.00;103264.09;5283587;28;20027;-73
2022/01/17 01:28:54;;;;;;;146.88;44.65;;;;;;;4.72;100.00;103280.09;5282520;28;20081;-74
2022/01/17 01:31:39;;;;;;;153.68;42.55;;;;;;;4.70;100.00;103266.03;5283359;28;20016;-74
2022/01/17 01:34:10;;;;;;;159.20;43.78;;;;;;;4.67;100.00;103267.91;5275514;28;20024;-73
2022/01/17 01:36:41;;;;;;;164.88;45.05;;;;;;;4.66;100.00;103266.16;5280123;28;20024;-74
2022/01/17 01:39:12;;;;;;;155.45;45.05;;;;;;;4.71;100.00;103275.72;5266431;28;20038;-74
2022/01/17 01:41:43;;;;;;;168.27;43.78;;;;;;;4.65;100.00;103274.22;5278989;28;20388;-74
2022/01/17 01:44:16;;;;;;;156.80;43.88;;;;;;;4.63;100.00;103268.97;5280138;28;20387;-74
2022/01/17 01:46:49;;;;;;;167.30;46.00;;;;;;;4.65;100.00;103277.72;5266488;28;20028;-74
2022/01/17 01:49:21;;;;;;;166.10;45.83;;;;;;;4.70;100.00;103282.84;5282065;28;20030;-74
2022/01/17 01:51:52;;;;;;;152.40;44.08;;;;;;;4.70;100.00;103279.31;5277523;28;20024;-75
2022/01/17 01:54:22;;;;;;;155.25;44.55;;;;;;;4.69;100.00;103283.78;5265919;28;20038;-74
2022/01/17 01:56:52;;;;;;;167.80;47.00;;;;;;;4.69;100.00;103267.81;5266674;28;20170;-74
2022/01/17 01:59:24;;;;;;;165.27;44.20;;;;;;;4.66;100.00;103259.97;5265963;28;20039;-74
2022/01/17 02:01:55;;;;;;;191.85;49.65;;;;;;;4.64;100.00;103260.06;5280967;28;20055;-76
2022/01/17 02:04:25;;;;;;;174.32;46.90;;;;;;;4.65;100.00;103269.75;5267552;28;20016;-76
2022/01/17 02:06:56;;;;;;;164.40;45.95;;;;;;;4.67;100.00;103261.72;5280862;28;20430;-75
2022/01/17 02:09:27;;;;;;;179.20;46.13;;;;;;;4.64;100.00;103257.38;5287683;28;20038;-75
2022/01/17 02:11:57;;;;;;;174.68;45.88;;;;;;;4.63;100.00;103255.66;5271995;28;20035;-74
2022/01/17 02:14:41;;;;;;;178.35;45.50;;;;;;;4.64;100.00;103268.03;5266525;28;20016;-74
2022/01/17 02:17:12;;;;;;;183.05;47.10;;;;;;;4.63;100.00;103271.63;5266496;28;20050;-74
2022/01/17 02:19:46;;;;;;;180.48;48.42;;;;;;;4.65;100.00;103275.06;5265169;28;20024;-74
2022/01/17 02:22:17;;;;;;;174.98;45.28;;;;;;;4.64;100.00;103277.81;5266109;28;20042;-74
2022/01/17 02:24:47;;;;;;;178.80;47.50;;;;;;;4.65;100.00;103280.38;5278515;28;20472;-74
2022/01/17 02:27:18;;;;;;;167.93;45.92;;;;;;;4.71;100.00;103289.03;5266440;28;20028;-74
2022/01/17 02:29:48;;;;;;;182.88;49.10;;;;;;;4.67;100.00;103273.22;5268570;28;20131;-74
2022/01/17 02:32:19;;;;;;;168.00;45.83;;;;;;;4.67;100.00;103275.03;5287238;28;20051;-73
2022/01/17 02:34:49;;;;;;;173.57;47.97;;;;;;;4.67;100.00;103267.03;5281731;28;20024;-73
2022/01/17 02:37:20;;;;;;;181.77;48.13;;;;;;;4.67;100.00;103256.41;5265722;28;20031;-73
2022/01/17 02:39:51;;;;;;;174.52;47.00;;;;;;;4.66;100.00;103266.16;5279557;28;20074;-73
2022/01/17 02:42:22;;;;;;;164.45;49.30;;;;;;;4.67;100.00;103267.03;5278631;28;20103;-73
2022/01/17 02:45:00;;;;;;;183.35;46.80;;;;;;;4.68;100.00;103255.47;5279259;28;20020;-73
2022/01/17 02:47:38;;;;;;;182.00;46.75;;;;;;;4.71;100.00;103265.94;5265471;28;20058;-73
2022/01/17 02:50:09;;;;;;;183.43;49.33;;;;;;;4.71;100.00;103260.63;5265546;28;20020;-73
2022/01/17 02:52:39;;;;;;;180.57;48.28;;;;;;;4.71;100.00;103268.59;5265425;28;20118;-73
2022/01/17 02:55:11;;;;;;;172.45;47.83;;;;;;;4.73;100.00;103280.06;5276595;28;20106;-73
2022/01/17 02:57:42;;;;;;;175.98;46.25;;;;;;;4.73;100.00;103282.72;5281086;28;20020;-73
2022/01/17 03:00:21;;;;;;;171.13;44.83;;;;;;;4.75;100.00;103277.31;5278380;28;20559;-72
2022/01/17 03:02:52;;;;;;;176.82;49.15;;;;;;;4.75;100.00;103278.19;5286738;28;20047;-72
2022/01/17 03:05:22;;;;;;;177.77;47.85;;;;;;;4.72;100.00;103273.03;5286441;28;20062;-73
2022/01/17 03:07:53;;;;;;;178.25;48.03;;;;;;;4.76;100.00;103268.41;5286835;28;20078;-73
2022/01/17 03:10:37;;;;;;;169.15;46.13;;;;;;;4.76;100.00;103258.63;5269627;28;20055;-73
2022/01/17 03:13:12;;;;;;;164.32;45.65;;;;;;;4.77;100.00;103262.13;5277539;28;20132;-73
2022/01/17 03:15:46;;;;;;;162.95;48.22;;;;;;;4.77;100.00;103271.00;5286440;28;20020;-73
2022/01/17 03:18:17;;;;;;;186.50;48.90;;;;;;;4.75;100.00;103280.84;5272799;28;20430;-73
2022/01/17 03:20:48;;;;;;;174.10;48.00;;;;;;;4.76;100.00;103279.03;5285990;28;20098;-73
2022/01/17 03:23:18;;;;;;;177.35;48.90;;;;;;;4.76;100.00;103277.25;5284780;28;20484;-73
2022/01/17 03:25:49;;;;;;;182.75;48.10;;;;;;;4.77;100.00;103273.66;5275557;28;20020;-73
2022/01/17 03:28:20;;;;;;;178.77;50.67;;;;;;;4.79;100.00;103273.59;5264904;28;20473;-73
2022/01/17 03:30:51;;;;;;;165.73;46.03;;;;;;;4.77;100.00;103276.34;5275869;28;20027;-73
2022/01/17 03:33:21;;;;;;;189.82;49.70;;;;;;;4.78;100.00;103274.53;5285717;28;20484;-73
2022/01/17 03:35:52;;;;;;;176.13;48.05;;;;;;;4.77;100.00;103268.34;5285485;28;20032;-73
2022/01/17 03:38:26;;;;;;;175.60;48.53;;;;;;;4.77;100.00;103272.78;5285913;28;20026;-73
2022/01/17 03:40:58;;;;;;;165.68;48.13;;;;;;;4.77;100.00;103268.34;5271156;28;20054;-73
2022/01/17 03:43:29;;;;;;;183.45;49.50;;;;;;;4.76;100.00;103263.09;5264957;28;20392;-73
2022/01/17 03:46:00;;;;;;;175.05;49.63;;;;;;;4.80;100.00;103270.00;5277561;28;20023;-73
2022/01/17 03:48:32;;;;;;;175.27;47.88;;;;;;;4.81;100.00;103271.72;5264440;28;20023;-73
2022/01/17 03:51:03;;;;;;;168.05;46.22;;;;;;;4.82;100.00;103269.00;5277933;28;20052;-74
2022/01/17 03:53:34;;;;;;;180.32;50.22;;;;;;;4.79;100.00;103266.47;5275315;28;20472;-74
2022/01/17 03:56:04;;;;;;;166.90;45.85;;;;;;;4.76;100.00;103266.59;5280040;28;20034;-73
2022/01/17 03:58:35;;;;;;;182.60;47.97;;;;;;;4.78;100.00;103263.91;5276582;28;20054;-74
2022/01/17 04:01:06;;;;;;;163.95;46.75;;;;;;;4.79;100.00;103265.63;5266470;28;20045;-74
2022/01/17 04:03:38;;;;;;;178.30;48.58;;;;;;;4.78;100.00;103262.09;5279404;28;20475;-74
2022/01/17 04:06:09;;;;;;;166.63;45.53;;;;;;;4.78;100.00;103270.06;5276979;28;20024;-74
2022/01/17 04:08:39;;;;;;;190.00;51.30;;;;;;;4.76;100.00;103271.91;5278057;28;20027;-74
2022/01/17 04:11:10;;;;;;;178.45;48.90;;;;;;;4.78;100.00;103259.44;5263345;28;20028;-74
2022/01/17 04:13:40;;;;;;;202.55;59.30;;;;;;;4.79;100.00;103269.13;5266876;28;20032;-73
2022/01/17 04:16:12;;;;;;;225.48;85.60;;;;;;;4.80;100.00;103273.50;5274461;28;20024;-73
2022/01/17 04:18:43;;;;;;;174.25;49.63;;;;;;;4.82;100.00;103268.13;5264160;28;20024;-74
2022/01/17 04:21:13;;;;;;;164.30;48.28;;;;;;;4.81;100.00;103272.56;5263983;28;20023;-74
2022/01/17 04:23:44;;;;;;;162.48;47.40;;;;;;;4.80;100.00;103262.88;5283118;28;20023;-74
2022/01/17 04:26:14;;;;;;;162.73;46.70;;;;;;;4.79;100.00;103263.81;5270815;28;20027;-74
2022/01/17 04:28:45;;;;;;;171.52;45.45;;;;;;;4.81;100.00;103267.25;5263505;28;20481;-74
2022/01/17 04:31:15;;;;;;;185.07;51.58;;;;;;;4.78;100.00;103254.13;5265407;28;20024;-75
2022/01/17 04:33:46;;;;;;;151.40;46.30;;;;;;;4.71;100.00;103268.59;5291106;28;20107;-75
2022/01/17 04:36:17;;;;;;;161.02;48.25;;;;;;;4.62;100.00;103269.03;5292825;28;20106;-74
2022/01/17 04:38:47;;;;;;;171.02;46.83;;;;;;;4.55;100.00;103279.06;5286079;28;20119;-74
2022/01/17 04:41:19;;;;;;;157.18;45.13;;;;;;;4.50;100.00;103275.75;5262332;28;20366;-75
2022/01/17 04:46:20;;;;;;;161.98;47.08;;;;;;;4.34;100.00;103266.72;5264250;28;20020;-74
2022/01/17 04:48:50;;;;;;;162.38;44.90;;;;;;;4.24;100.00;103268.06;5264223;28;20032;-75
2022/01/17 04:51:21;;;;;;;189.88;49.20;;;;;;;4.15;100.00;103266.66;5284605;28;20079;-74
2022/01/17 04:54:14;;;;;;;170.77;46.38;;;;;;;4.09;100.00;103280.19;5284282;28;20023;-74
2022/01/17 04:56:42;;;;;;;160.48;45.15;;;;;;;3.97;100.00;103264.78;5285195;28;20020;-74
2022/01/17 04:59:12;;;;;;;206.77;50.60;;;;;;;3.93;100.00;103265.84;5270525;28;20033;-74
2022/01/17 05:01:43;;;;;;;186.60;48.28;;;;;;;3.88;100.00;103272.22;5272427;28;20052;-74
2022/01/17 05:04:13;;;;;;;193.60;48.35;;;;;;;3.84;100.00;103272.41;5282328;28;20024;-73
2022/01/17 05:06:44;;;;;;;199.02;49.17;;;;;;;3.83;100.00;103273.31;5271910;28;20035;-74
2022/01/17 05:09:14;;;;;;;204.48;50.25;;;;;;;3.81;100.00;103267.19;5279446;28;20035;-73
2022/01/17 05:11:45;;;;;;;233.90;49.40;;;;;;;3.81;100.00;103267.19;5269376;28;20055;-74
2022/01/17 05:14:15;;;;;;;187.00;48.42;;;;;;;3.74;100.00;103279.88;5282473;27;20067;-74
2022/01/17 05:16:51;;;;;;;185.02;48.78;;;;;;;3.70;100.00;103272.94;5270247;28;20024;-74
2022/01/17 05:22:10;;;;;;;195.50;48.45;;;;;;;3.60;100.00;103274.25;5273937;28;20441;-74
2022/01/17 05:24:41;;;;;;;187.48;48.55;;;;;;;3.56;100.00;103275.28;5287289;28;20118;-74
2022/01/17 05:27:12;;;;;;;213.07;50.38;;;;;;;3.53;100.00;103280.75;5268702;28;20464;-75
2022/01/17 05:29:43;;;;;;;197.60;49.97;;;;;;;3.49;100.00;103289.75;5268559;28;20016;-74
2022/01/17 05:32:13;;;;;;;217.48;54.22;;;;;;;3.48;100.00;103293.34;5267614;28;20141;-74
2022/01/17 05:34:44;;;;;;;222.43;53.60;;;;;;;3.52;100.00;103308.22;5266117;28;20267;-74
2022/01/17 05:37:15;;;;;;;227.15;54.42;;;;;;;3.57;100.00;103300.94;5267458;28;20471;-74
2022/01/17 05:39:45;;;;;;;209.65;51.88;;;;;;;3.60;100.00;103306.97;5271007;28;20338;-74
2022/01/17 05:42:18;;;;;;;220.30;53.65;;;;;;;3.65;100.00;103304.13;5287580;28;20020;-73
2022/01/17 05:44:49;;;;;;;227.15;52.00;;;;;;;3.68;100.00;103306.69;5283255;28;20024;-73
2022/01/17 05:47:20;;;;;;;232.68;54.85;;;;;;;3.72;100.00;103292.34;5281191;28;20027;-74
2022/01/17 05:49:50;;;;;;;215.13;51.97;;;;;;;3.71;100.00;103281.78;5268202;28;20077;-75
2022/01/17 05:52:21;;;;;;;214.27;52.05;;;;;;;3.60;100.00;103280.41;5281348;28;20032;-75
2022/01/17 05:54:52;;;;;;;208.30;51.67;;;;;;;3.54;100.00;103280.66;5290089;28;20026;-75
2022/01/17 05:57:23;;;;;;;209.88;49.25;;;;;;;3.47;100.00;103291.63;5273026;28;20023;-75
2022/01/17 05:59:54;;;;;;;203.48;49.38;;;;;;;3.46;100.00;103300.47;5266844;28;20081;-75
2022/01/17 06:02:24;;;;;;;192.55;48.58;;;;;;;3.44;100.00;103315.59;5269043;28;20473;-74
2022/01/17 06:04:55;;;;;;;207.70;51.13;;;;;;;3.44;100.00;103342.16;5277997;28;20084;-75
2022/01/17 06:07:25;;;;;;;220.55;59.67;;;;;;;3.48;100.00;103336.66;5287803;27;20350;-75
2022/01/17 06:09:56;;;;;;;227.95;65.97;;;;;;;3.57;100.00;103331.00;5277091;27;20031;-75
2022/01/17 06:12:27;;;;;;;221.13;57.63;;;;;;;3.68;100.00;103329.72;5274342;28;20114;-74
2022/01/17 06:14:58;;;;;;;223.55;54.55;;;;;;;3.75;100.00;103329.38;5288177;28;20102;-75
2022/01/17 06:17:28;;;;;;;222.10;53.70;;;;;;;3.90;100.00;103328.75;5287840;28;20054;-75
2022/01/17 06:19:59;;;;;;;220.95;53.45;;;;;;;4.02;100.00;103334.53;5273474;28;20095;-74
2022/01/17 06:22:29;;;;;;;222.30;54.58;;;;;;;4.13;100.00;103341.13;5287499;27;20152;-74
2022/01/17 06:25:00;;;;;;;243.85;65.32;;;;;;;4.21;100.00;103348.75;5286225;28;20046;-75
2022/01/17 06:27:31;;;;;;;261.48;63.58;;;;;;;4.28;100.00;103366.19;5288713;27;20107;-75
2022/01/17 06:30:01;;;;;;;266.05;78.30;;;;;;;4.33;100.00;103366.00;5269892;28;20038;-75
2022/01/17 06:32:32;;;;;;;259.63;65.32;;;;;;;4.40;100.00;103365.66;5279506;28;20027;-75
2022/01/17 06:35:04;;;;;;;259.75;64.03;;;;;;;4.46;100.00;103363.66;5273140;27;20032;-75
2022/01/17 06:37:35;;;;;;;270.63;66.45;;;;;;;4.48;100.00;103360.03;5277331;28;20020;-76
2022/01/17 06:40:07;;;;;;;242.55;62.20;;;;;;;4.53;100.00;103365.16;5275861;28;20102;-75
2022/01/17 06:42:38;;;;;;;264.67;60.38;;;;;;;4.56;100.00;103363.19;5273994;28;20027;-75
2022/01/17 06:45:09;;;;;;;273.70;64.65;;;;;;;4.64;100.00;103368.22;5286912;27;20016;-75
2022/01/17 06:47:40;;;;;;;263.75;64.15;;;;;;;4.66;100.00;103359.22;5274608;28;20027;-75
2022/01/17 06:50:11;;;;;;;249.07;64.50;;;;;;;4.70;100.00;103357.28;5280211;28;20027;-75
2022/01/17 06:52:43;;;;;;;304.17;76.97;;;;;;;4.73;100.00;103365.16;5268276;28;20148;-74
2022/01/17 06:55:13;;;;;;;261.75;63.33;;;;;;;4.76;100.00;103385.41;5268869;28;20042;-75
2022/01/17 06:57:44;;;;;;;262.20;67.97;;;;;;;4.77;100.00;103371.19;5275240;28;20031;-75
2022/01/17 07:00:14;;;;;;;244.77;66.85;;;;;;;4.78;100.00;103381.78;5287840;28;20111;-73
2022/01/17 07:02:45;;;;;;;262.27;63.53;;;;;;;4.83;100.00;103401.06;5286109;28;20084;-73
2022/01/17 07:05:15;;;;;;;268.10;63.63;;;;;;;4.87;100.00;103399.09;5285911;28;20027;-73
2022/01/17 07:07:46;;;;;;;252.60;59.55;;;;;;;4.90;100.00;103402.50;5286444;28;20511;-73
2022/01/17 07:10:16;;;;;;;351.00;102.03;;;;;;;4.93;100.00;103410.34;5284515;28;20114;-73
2022/01/17 07:12:47;;;;;;;275.50;63.33;;;;;;;4.91;100.00;103421.97;5286244;28;20027;-73
2022/01/17 07:15:17;;;;;;;287.60;71.75;;;;;;;4.97;100.00;103415.53;5286118;28;20027;-74
2022/01/17 07:17:48;;;;;;;269.35;72.68;;;;;;;5.03;100.00;103420.59;5286306;28;20036;-74
2022/01/17 07:20:18;;;;;;;252.85;59.10;;;;;;;5.03;100.00;103412.63;5281954;28;20020;-73
2022/01/17 07:22:49;;;;;;;242.48;57.58;;;;;;;5.05;100.00;103418.72;5276260;28;20465;-73
2022/01/17 07:25:20;;;;;;;256.05;60.30;;;;;;;5.08;100.00;103422.13;5279207;28;20060;-73
2022/01/17 07:27:51;;;;;;;266.73;65.50;;;;;;;5.04;100.00;103404.56;5278047;28;20421;-73
2022/01/17 07:30:22;;;;;;;299.85;90.15;;;;;;;5.09;100.00;103407.88;5265291;27;20381;-74
2022/01/17 07:32:52;;;;;;;304.33;90.85;;;;;;;5.12;100.00;103413.09;5266060;28;20032;-74
2022/01/17 07:35:23;;;;;;;323.40;98.90;;;;;;;5.14;100.00;103408.53;5285532;28;20020;-74
2022/01/17 07:37:53;;;;;;;381.90;113.30;;;;;;;5.17;100.00;103416.41;5269524;28;20494;-74
2022/01/17 07:40:24;;;;;;;318.60;96.63;;;;;;;5.16;100.00;103421.78;5265103;28;20166;-74
2022/01/17 07:42:55;;;;;;;351.65;96.82;;;;;;;5.18;100.00;103422.59;5279772;28;20040;-74
2022/01/17 07:45:27;;;;;;;274.30;76.47;;;;;;;5.20;100.00;103426.03;5283828;28;20028;-74
2022/01/17 07:48:33;;;;;;;296.73;91.32;;;;;;;5.24;100.00;103427.63;5282217;28;20354;-74
2022/01/17 07:51:00;;;;;;;240.23;63.28;;;;;;;5.19;100.00;103419.84;5281269;28;20111;-74
2022/01/17 07:53:31;;;;;;;227.50;60.72;;;;;;;5.23;100.00;103395.75;5283671;28;20103;-73
2022/01/17 07:56:01;;;;;;;230.10;57.15;;;;;;;5.23;100.00;103393.09;5281037;28;20032;-74
2022/01/17 07:58:32;;;;;;;212.40;58.33;;;;;;;5.24;100.00;103397.50;5284214;28;20469;-74
2022/01/17 08:01:02;;;;;;;235.02;60.13;;;;;;;5.25;100.00;103405.41;5273233;27;20023;-73
2022/01/17 08:03:33;;;;;;;229.75;66.15;;;;;;;5.25;100.00;103413.38;5279371;27;20091;-74
2022/01/17 08:06:04;;;;;;;220.65;60.50;;;;;;;5.27;100.00;103408.88;5276113;28;20032;-73
2022/01/17 08:08:35;;;;;;;217.98;59.05;;;;;;;5.32;100.00;103416.63;5265101;28;20039;-74
2022/01/17 08:11:05;;;;;;;210.20;54.97;;;;;;;5.32;100.00;103417.50;5279825;28;20338;-73
2022/01/17 08:13:36;;;;;;;210.70;58.65;;;;;;;5.34;100.00;103412.97;5280467;28;20032;-74
2022/01/17 08:16:06;;;;;;;184.45;55.47;;;;;;;5.40;100.00;103422.47;5274525;28;20019;-73
2022/01/17 08:18:37;;;;;;;187.82;53.65;;;;;;;5.43;100.00;103419.69;5263192;28;20412;-74
2022/01/17 08:21:07;;;;;;;194.65;53.75;;;;;;;5.43;100.00;103420.53;5281249;28;20050;-74
2022/01/17 08:23:38;;;;;;;175.48;52.70;;;;;;;5.40;100.00;103415.34;5272640;27;20084;-73
2022/01/17 08:26:09;;;;;;;176.82;53.25;;;;;;;5.44;100.00;103424.94;5283638;27;20024;-74
2022/01/17 08:28:40;;;;;;;173.40;50.53;;;;;;;5.50;100.00;103442.41;5283475;28;20380;-73
2022/01/17 08:31:11;;;;;;;164.90;51.50;;;;;;;5.59;100.00;103443.81;5283167;28;20043;-74
2022/01/17 08:33:42;;;;;;;161.48;49.95;;;;;;;5.56;100.00;103449.25;5269385;28;20863;-73
2022/01/17 08:36:14;;;;;;;142.68;44.78;;;;;;;5.59;100.00;103454.44;5281855;28;20034;-74
2022/01/17 08:38:47;;;;;;;129.57;43.45;;;;;;;5.68;100.00;103457.56;5274254;28;20016;-73
2022/01/17 08:41:19;;;;;;;149.05;46.78;;;;;;;5.72;100.00;103460.91;5262231;28;20016;-73
2022/01/17 08:43:50;;;;;;;135.23;46.80;;;;;;;5.66;100.00;103455.88;5261082;28;20481;-73
2022/01/17 08:46:20;;;;;;;130.85;40.92;;;;;;;5.71;100.00;103456.53;5280727;28;20031;-74
2022/01/17 08:48:53;;;;;;;117.68;39.47;;;;;;;5.81;100.00;103454.31;5283677;27;20544;-74
2022/01/17 08:51:23;;;;;;;121.35;39.72;;;;;;;5.90;100.00;103459.22;5282960;28;20396;-74
2022/01/17 08:53:54;;;;;;;101.32;36.25;;;;;;;5.91;100.00;103458.28;5283212;28;20031;-73
2022/01/17 08:56:27;;;;;;;95.78;33.75;;;;;;;6.02;100.00;103455.13;5261485;28;20076;-73
2022/01/17 08:58:59;;;;;;;99.40;32.45;;;;;;;5.97;100.00;103460.66;5275688;28;20249;-74
2022/01/17 09:01:30;;;;;;;84.32;29.88;;;;;;;5.96;100.00;103459.81;5272089;28;20098;-73
2022/01/17 09:04:01;;;;;;;71.43;27.70;;;;;;;5.95;100.00;103466.09;5284037;28;20169;-73
2022/01/17 09:06:32;;;;;;;114.75;40.95;;;;;;;5.92;100.00;103455.59;5283166;28;20027;-73
2022/01/17 09:09:03;;;;;;;76.32;27.45;;;;;;;5.97;100.00;103458.00;5283065;28;20118;-73
2022/01/17 09:11:33;;;;;;;64.60;23.95;;;;;;;6.41;100.00;103455.88;5283088;28;20027;-73
2022/01/17 09:14:04;;;;;;;52.60;21.17;;;;;;;6.83;100.00;103460.00;5283299;28;20076;-74
2022/01/17 09:16:34;;;;;;;47.95;21.02;;;;;;;7.34;100.00;103454.69;5283470;28;20484;-73
2022/01/17 09:19:07;;;;;;;55.10;19.55;;;;;;;7.75;100.00;103456.00;5283208;28;20068;-74
2022/01/17 09:21:37;;;;;;;48.05;20.65;;;;;;;8.18;100.00;103464.31;5282909;28;20020;-74
2022/01/17 09:24:08;;;;;;;53.50;21.65;;;;;;;8.49;100.00;103470.59;5283386;28;20031;-74
2022/01/17 09:26:38;;;;;;;44.97;19.67;;;;;;;8.85;100.00;103475.59;5268851;28;20024;-74
2022/01/17 09:29:09;;;;;;;43.92;18.67;;;;;;;8.99;100.00;103472.97;5273462;28;20016;-74
2022/01/17 09:31:39;;;;;;;41.47;16.45;;;;;;;9.11;100.00;103478.53;5266723;28;20659;-73
2022/01/17 09:34:10;;;;;;;36.25;16.15;;;;;;;8.98;100.00;103467.69;5281853;28;20397;-73
2022/01/17 09:36:41;;;;;;;33.75;14.45;;;;;;;9.10;100.00;103469.63;5283125;28;20377;-73
2022/01/17 09:39:11;;;;;;;39.42;15.10;;;;;;;9.58;100.00;103473.78;5270817;28;20016;-73
2022/01/17 09:41:42;;;;;;;33.20;14.95;;;;;;;9.49;100.00;103476.19;5268038;28;20015;-74
2022/01/17 09:44:13;;;;;;;31.25;13.23;;;;;;;9.11;100.00;103475.84;5282269;28;20024;-73
2022/01/17 09:46:47;;;;;;;37.92;14.77;;;;;;;8.46;100.00;103485.00;5282936;28;20110;-73
2022/01/17 09:49:36;;;;;;;33.53;14.35;;;;;;;8.20;100.00;103497.16;5280682;28;20084;-73
2022/01/17 09:55:06;;;;;;;50.88;17.70;;;;;;;7.66;100.00;103506.41;5263829;28;20028;-73
2022/01/17 09:57:52;;;;;;;45.63;17.52;;;;;;;7.56;100.00;103524.72;5283071;28;20422;-73
2022/01/17 10:00:26;;;;;;;49.55;18.65;;;;;;;7.38;100.00;103537.25;5285395;28;20024;-73
2022/01/17 10:02:58;;;;;;;43.95;16.73;;;;;;;7.25;100.00;103534.34;5272618;28;20077;-73
2022/01/17 10:05:29;;;;;;;45.30;15.48;;;;;;;7.22;100.00;103549.66;5286483;28;20055;-73
2022/01/17 10:08:04;;;;;;;46.08;15.90;;;;;;;7.15;100.00;103543.75;5286201;28;20096;-73
2022/01/17 10:10:51;;;;;;;41.33;17.30;;;;;;;7.00;100.00;103534.72;5280990;28;20124;-73
2022/01/17 10:13:25;;;;;;;43.95;15.48;;;;;;;6.93;100.00;103545.81;5265117;28;20032;-73
2022/01/17 10:16:16;;;;;;;44.90;18.13;;;;;;;6.96;100.00;103534.97;5264735;28;20153;-73
2022/01/17 10:19:02;;;;;;;47.03;16.35;;;;;;;6.90;100.00;103535.28;5282630;28;20098;-73
2022/01/17 10:21:53;;;;;;;75.90;28.63;;;;;;;6.94;100.00;103527.03;5285622;28;20024;-73
2022/01/17 10:24:35;;;;;;;115.72;39.17;;;;;;;7.12;100.00;103527.03;5286208;28;20633;-73
2022/01/17 10:35:50;;;;;;;54.00;20.77;;;;;;;7.52;100.00;103550.72;5276872;28;20020;-73
2022/01/17 10:38:23;;;;;;;49.75;14.40;;;;;;;7.49;100.00;103555.38;5277760;28;20024;-73
2022/01/17 10:40:58;;;;;;;46.85;15.07;;;;;;;7.38;100.00;103542.59;5278200;28;20480;-73
2022/01/17 10:46:22;;;;;;;62.25;17.85;;;;;;;7.24;100.00;103553.97;5280847;28;20024;-73
2022/01/17 10:48:54;;;;;;;62.75;17.73;;;;;;;7.25;100.00;103546.84;5262763;28;20027;-73
2022/01/17 10:51:32;;;;;;;38.95;14.43;;;;;;;7.34;100.00;103562.38;5264067;28;20032;-73
2022/01/17 10:54:21;;;;;;;40.28;14.27;;;;;;;7.34;100.00;103565.06;5264472;28;20059;-73
2022/01/17 10:56:56;;;;;;;47.10;15.27;;;;;;;7.25;100.00;103566.38;5275179;28;20026;-73
2022/01/17 10:59:29;;;;;;;37.30;14.48;;;;;;;7.27;100.00;103572.50;5271162;28;20031;-73
2022/01/17 11:01:59;;;;;;;33.50;14.85;;;;;;;7.25;100.00;103568.19;5283544;28;20016;-73
2022/01/17 11:04:49;;;;;;;35.72;15.00;;;;;;;7.28;100.00;103573.38;5263952;28;20480;-73
2022/01/17 11:07:20;;;;;;;73.65;27.60;;;;;;;7.29;100.00;103566.25;5263809;28;20427;-73
2022/01/17 11:09:50;;;;;;;45.38;14.55;;;;;;;7.27;100.00;103580.50;5274266;28;20024;-73
2022/01/17 11:12:21;;;;;;;46.10;16.67;;;;;;;7.25;100.00;103577.06;5271049;28;20048;-73
2022/01/17 11:14:51;;;;;;;46.55;14.23;;;;;;;7.29;100.00;103585.78;5273091;27;20031;-73
2022/01/17 11:17:32;;;;;;;39.88;14.27;;;;;;;7.31;100.00;103586.56;5283254;28;20027;-73
2022/01/17 11:20:08;;;;;;;45.17;17.83;;;;;;;7.35;100.00;103592.63;5270286;28;20020;-73
2022/01/17 11:22:43;;;;;;;39.33;14.70;;;;;;;7.33;100.00;103590.03;5273132;28;20106;-73
2022/01/17 11:25:18;;;;;;;45.80;21.77;;;;;;;7.27;100.00;103580.50;5278828;28;20019;-73
2022/01/17 11:27:49;;;;;;;42.45;16.08;;;;;;;7.34;100.00;103570.41;5284746;28;20505;-73
2022/01/17 11:30:21;;;;;;;54.97;24.48;;;;;;;7.41;100.00;103577.13;5284211;28;20022;-73
2022/01/17 11:32:54;;;;;;;53.47;18.75;;;;;;;7.48;100.00;103550.97;5284084;27;20058;-73
2022/01/17 11:35:26;;;;;;;58.97;25.98;;;;;;;7.48;100.00;103551.84;5271788;28;20034;-73
2022/01/17 11:37:59;;;;;;;51.55;19.00;;;;;;;7.56;100.00;103558.59;5284932;28;20034;-73
2022/01/17 11:40:32;;;;;;;48.78;16.23;;;;;;;7.62;100.00;103553.78;5274349;27;20024;-73
2022/01/17 11:43:32;;;;;;;46.50;17.27;;;;;;;7.62;100.00;103553.78;5262503;28;20107;-73
2022/01/17 11:46:25;;;;;;;49.90;17.33;;;;;;;7.70;100.00;103562.25;5276571;28;20068;-73
2022/01/17 11:49:23;;;;;;;38.92;13.95;;;;;;;7.69;100.00;103562.34;5262985;28;20026;-73
2022/01/17 11:51:54;;;;;;;44.92;19.52;;;;;;;7.67;100.00;103570.44;5262748;28;20112;-73
2022/01/17 11:54:27;;;;;;;40.55;14.93;;;;;;;7.74;100.00;103573.66;5266893;28;20393;-73
2022/01/17 11:57:02;;;;;;;38.58;15.48;;;;;;;7.86;100.00;103569.47;5272269;28;20024;-73
2022/01/17 11:59:51;;;;;;;51.63;17.02;;;;;;;7.93;100.00;103566.41;5262810;28;20136;-73
2022/01/17 12:02:27;;;;;;;36.25;15.05;;;;;;;8.00;100.00;103566.91;5279967;28;20019;-73